sensor_id;sensor_type;location;lat;lon;timestamp;pressure;altitude;pressure_sealevel;temperature;humidity
30873;BME280;17579;42.690;2.586;2022-12-20T00:00:15;97648.97;;;10.55;66.16
30873;BME280;17579;42.690;2.586;2022-12-20T00:02:41;97651.91;;;10.52;65.64
30873;BME280;17579;42.690;2.586;2022-12-20T00:05:07;97646.88;;;10.49;65.85
30873;BME280;17579;42.690;2.586;2022-12-20T00:07:33;97645.34;;;10.47;65.53
30873;BME280;17579;42.690;2.586;2022-12-20T00:09:58;97639.50;;;10.43;65.71
30873;BME280;17579;42.690;2.586;2022-12-20T00:12:24;97643.38;;;10.39;65.69
30873;BME280;17579;42.690;2.586;2022-12-20T00:14:49;97646.44;;;10.34;65.54
30873;BME280;17579;42.690;2.586;2022-12-20T00:17:15;97640.66;;;10.29;65.89
30873;BME280;17579;42.690;2.586;2022-12-20T00:19:42;97641.34;;;10.21;65.69
30873;BME280;17579;42.690;2.586;2022-12-20T00:22:08;97644.09;;;10.20;65.77
30873;BME280;17579;42.690;2.586;2022-12-20T00:24:34;97643.53;;;10.16;66.08
30873;BME280;17579;42.690;2.586;2022-12-20T00:26:59;97645.50;;;10.14;66.07
30873;BME280;17579;42.690;2.586;2022-12-20T00:29:25;97630.84;;;10.10;66.26
30873;BME280;17579;42.690;2.586;2022-12-20T00:31:50;97633.63;;;10.09;66.36
30873;BME280;17579;42.690;2.586;2022-12-20T00:34:16;97647.09;;;10.05;66.42
30873;BME280;17579;42.690;2.586;2022-12-20T00:36:41;97637.78;;;10.01;66.36
30873;BME280;17579;42.690;2.586;2022-12-20T00:39:08;97635.28;;;10.00;66.64
30873;BME280;17579;42.690;2.586;2022-12-20T00:41:33;97632.63;;;10.00;66.74
30873;BME280;17579;42.690;2.586;2022-12-20T00:44:00;97638.75;;;10.00;66.59
30873;BME280;17579;42.690;2.586;2022-12-20T00:46:26;97638.16;;;9.97;66.69
30873;BME280;17579;42.690;2.586;2022-12-20T00:48:53;97647.06;;;9.96;66.98
30873;BME280;17579;42.690;2.586;2022-12-20T00:51:24;97640.09;;;9.95;66.77
30873;BME280;17579;42.690;2.586;2022-12-20T00:53:50;97642.47;;;9.98;67.06
30873;BME280;17579;42.690;2.586;2022-12-20T00:56:17;97630.22;;;9.97;66.92
30873;BME280;17579;42.690;2.586;2022-12-20T00:58:43;97638.16;;;9.97;67.26
30873;BME280;17579;42.690;2.586;2022-12-20T01:01:30;97643.97;;;9.91;67.03
30873;BME280;17579;42.690;2.586;2022-12-20T01:03:57;97640.66;;;9.98;66.97
30873;BME280;17579;42.690;2.586;2022-12-20T01:06:23;97646.22;;;9.95;67.27
30873;BME280;17579;42.690;2.586;2022-12-20T01:08:50;97645.25;;;9.96;67.30
30873;BME280;17579;42.690;2.586;2022-12-20T01:11:19;97645.38;;;9.95;67.19
30873;BME280;17579;42.690;2.586;2022-12-20T01:13:48;97639.84;;;9.98;67.21
30873;BME280;17579;42.690;2.586;2022-12-20T01:18:54;97642.22;;;10.01;67.16
30873;BME280;17579;42.690;2.586;2022-12-20T01:21:22;97642.34;;;9.99;67.31
30873;BME280;17579;42.690;2.586;2022-12-20T01:23:48;97637.78;;;10.01;67.33
30873;BME280;17579;42.690;2.586;2022-12-20T01:26:16;97631.63;;;10.01;67.14
30873;BME280;17579;42.690;2.586;2022-12-20T01:28:44;97635.69;;;10.05;67.70
30873;BME280;17579;42.690;2.586;2022-12-20T01:31:13;97627.63;;;10.06;67.47
30873;BME280;17579;42.690;2.586;2022-12-20T01:33:40;97634.31;;;10.11;67.30
30873;BME280;17579;42.690;2.586;2022-12-20T01:36:12;97639.63;;;10.11;67.07
30873;BME280;17579;42.690;2.586;2022-12-20T01:38:38;97638.38;;;10.15;67.10
30873;BME280;17579;42.690;2.586;2022-12-20T01:41:04;97630.31;;;10.16;67.23
30873;BME280;17579;42.690;2.586;2022-12-20T01:46:29;97637.00;;;10.20;67.09
30873;BME280;17579;42.690;2.586;2022-12-20T01:49:05;97639.06;;;10.17;67.24
30873;BME280;17579;42.690;2.586;2022-12-20T01:51:38;97636.59;;;10.25;67.63
30873;BME280;17579;42.690;2.586;2022-12-20T01:54:15;97638.28;;;10.26;67.33
30873;BME280;17579;42.690;2.586;2022-12-20T01:56:46;97633.41;;;10.31;67.69
30873;BME280;17579;42.690;2.586;2022-12-20T01:59:13;97637.66;;;10.34;67.37
30873;BME280;17579;42.690;2.586;2022-12-20T02:01:41;97635.72;;;10.36;67.38
30873;BME280;17579;42.690;2.586;2022-12-20T02:04:07;97629.31;;;10.38;67.31
30873;BME280;17579;42.690;2.586;2022-12-20T02:06:34;97632.09;;;10.37;67.29
30873;BME280;17579;42.690;2.586;2022-12-20T02:09:01;97623.47;;;10.35;67.11
30873;BME280;17579;42.690;2.586;2022-12-20T02:11:58;97627.72;;;10.26;67.38
30873;BME280;17579;42.690;2.586;2022-12-20T02:17:48;97625.50;;;10.31;67.29
30873;BME280;17579;42.690;2.586;2022-12-20T02:23:40;97609.41;;;10.34;67.42
30873;BME280;17579;42.690;2.586;2022-12-20T02:34:52;97607.66;;;10.54;67.09
30873;BME280;17579;42.690;2.586;2022-12-20T02:37:19;97597.75;;;10.56;67.14
30873;BME280;17579;42.690;2.586;2022-12-20T02:39:45;97600.41;;;10.56;67.19
30873;BME280;17579;42.690;2.586;2022-12-20T02:42:13;97592.75;;;10.53;67.19
30873;BME280;17579;42.690;2.586;2022-12-20T02:44:43;97593.03;;;10.50;67.40
30873;BME280;17579;42.690;2.586;2022-12-20T02:47:29;97593.16;;;10.49;66.96
30873;BME280;17579;42.690;2.586;2022-12-20T02:49:56;97588.84;;;10.48;66.95
30873;BME280;17579;42.690;2.586;2022-12-20T02:52:24;97588.25;;;10.44;67.08
30873;BME280;17579;42.690;2.586;2022-12-20T02:54:55;97574.06;;;10.45;67.41
30873;BME280;17579;42.690;2.586;2022-12-20T02:57:28;97571.28;;;10.47;67.27
30873;BME280;17579;42.690;2.586;2022-12-20T03:00:07;97575.47;;;10.49;67.34
30873;BME280;17579;42.690;2.586;2022-12-20T03:02:35;97569.63;;;10.55;67.34
30873;BME280;17579;42.690;2.586;2022-12-20T03:05:13;97570.06;;;10.61;67.34
30873;BME280;17579;42.690;2.586;2022-12-20T03:07:38;97566.31;;;10.63;67.25
30873;BME280;17579;42.690;2.586;2022-12-20T03:10:04;97579.53;;;10.63;67.26
30873;BME280;17579;42.690;2.586;2022-12-20T03:12:30;97573.53;;;10.61;67.00
30873;BME280;17579;42.690;2.586;2022-12-20T03:14:55;97570.06;;;10.61;66.80
30873;BME280;17579;42.690;2.586;2022-12-20T03:17:22;97566.72;;;10.58;66.53
30873;BME280;17579;42.690;2.586;2022-12-20T03:19:47;97572.84;;;10.59;66.72
30873;BME280;17579;42.690;2.586;2022-12-20T03:22:13;97575.50;;;10.59;66.90
30873;BME280;17579;42.690;2.586;2022-12-20T03:24:38;97578.16;;;10.59;66.73
30873;BME280;17579;42.690;2.586;2022-12-20T03:27:04;97584.13;;;10.61;66.93
30873;BME280;17579;42.690;2.586;2022-12-20T03:29:29;97595.56;;;10.62;66.87
30873;BME280;17579;42.690;2.586;2022-12-20T03:31:55;97590.50;;;10.58;67.00
30873;BME280;17579;42.690;2.586;2022-12-20T03:34:20;97591.22;;;10.61;66.81
30873;BME280;17579;42.690;2.586;2022-12-20T03:36:46;97580.66;;;10.61;66.60
30873;BME280;17579;42.690;2.586;2022-12-20T03:39:11;97580.78;;;10.59;66.93
30873;BME280;17579;42.690;2.586;2022-12-20T03:41:37;97578.81;;;10.61;66.58
30873;BME280;17579;42.690;2.586;2022-12-20T03:44:03;97572.56;;;10.62;66.47
30873;BME280;17579;42.690;2.586;2022-12-20T03:46:28;97571.75;;;10.62;66.65
30873;BME280;17579;42.690;2.586;2022-12-20T03:48:54;97565.31;;;10.64;66.54
30873;BME280;17579;42.690;2.586;2022-12-20T03:51:19;97567.16;;;10.64;66.71
30873;BME280;17579;42.690;2.586;2022-12-20T03:53:45;97566.31;;;10.63;66.44
30873;BME280;17579;42.690;2.586;2022-12-20T03:56:10;97565.47;;;10.63;66.87
30873;BME280;17579;42.690;2.586;2022-12-20T03:58:36;97566.47;;;10.62;66.81
30873;BME280;17579;42.690;2.586;2022-12-20T04:01:01;97566.47;;;10.62;66.63
30873;BME280;17579;42.690;2.586;2022-12-20T04:03:27;97562.28;;;10.59;66.82
30873;BME280;17579;42.690;2.586;2022-12-20T04:05:52;97564.78;;;10.61;66.78
30873;BME280;17579;42.690;2.586;2022-12-20T04:08:18;97560.44;;;10.60;66.61
30873;BME280;17579;42.690;2.586;2022-12-20T04:10:43;97564.91;;;10.59;66.44
30873;BME280;17579;42.690;2.586;2022-12-20T04:13:21;97573.69;;;10.60;66.38
30873;BME280;17579;42.690;2.586;2022-12-20T04:15:46;97570.50;;;10.56;66.34
30873;BME280;17579;42.690;2.586;2022-12-20T04:18:12;97577.03;;;10.52;66.17
30873;BME280;17579;42.690;2.586;2022-12-20T04:20:37;97573.66;;;10.50;66.13
30873;BME280;17579;42.690;2.586;2022-12-20T04:23:03;97569.59;;;10.46;66.19
30873;BME280;17579;42.690;2.586;2022-12-20T04:25:29;97571.00;;;10.40;66.61
30873;BME280;17579;42.690;2.586;2022-12-20T04:27:54;97581.72;;;10.38;66.85
30873;BME280;17579;42.690;2.586;2022-12-20T04:30:20;97574.91;;;10.36;66.71
30873;BME280;17579;42.690;2.586;2022-12-20T04:32:45;97578.38;;;10.36;66.82
30873;BME280;17579;42.690;2.586;2022-12-20T04:35:11;97590.06;;;10.34;67.12
30873;BME280;17579;42.690;2.586;2022-12-20T04:37:36;97588.25;;;10.34;67.11
30873;BME280;17579;42.690;2.586;2022-12-20T04:40:02;97576.69;;;10.35;67.32
30873;BME280;17579;42.690;2.586;2022-12-20T04:42:28;97584.34;;;10.38;67.07
30873;BME280;17579;42.690;2.586;2022-12-20T04:44:53;97588.53;;;10.41;67.38
30873;BME280;17579;42.690;2.586;2022-12-20T04:47:19;97590.06;;;10.44;67.31
30873;BME280;17579;42.690;2.586;2022-12-20T04:49:44;97576.44;;;10.48;67.58
30873;BME280;17579;42.690;2.586;2022-12-20T04:52:10;97583.28;;;10.51;67.63
30873;BME280;17579;42.690;2.586;2022-12-20T04:54:47;97586.22;;;10.57;67.54
30873;BME280;17579;42.690;2.586;2022-12-20T04:57:13;97585.94;;;10.61;67.72
30873;BME280;17579;42.690;2.586;2022-12-20T04:59:38;97590.13;;;10.63;67.47
30873;BME280;17579;42.690;2.586;2022-12-20T05:02:04;97588.03;;;10.67;67.35
30873;BME280;17579;42.690;2.586;2022-12-20T05:04:29;97580.81;;;10.69;67.12
30873;BME280;17579;42.690;2.586;2022-12-20T05:06:55;97593.75;;;10.72;67.27
30873;BME280;17579;42.690;2.586;2022-12-20T05:09:21;97585.69;;;10.73;67.02
30873;BME280;17579;42.690;2.586;2022-12-20T05:11:46;97582.03;;;10.74;67.08
30873;BME280;17579;42.690;2.586;2022-12-20T05:14:12;97581.94;;;10.76;67.09
30873;BME280;17579;42.690;2.586;2022-12-20T05:16:37;97581.94;;;10.76;67.23
30873;BME280;17579;42.690;2.586;2022-12-20T05:19:03;97587.06;;;10.78;67.24
30873;BME280;17579;42.690;2.586;2022-12-20T05:21:29;97578.44;;;10.75;67.10
30873;BME280;17579;42.690;2.586;2022-12-20T05:24:08;97565.19;;;10.75;66.83
30873;BME280;17579;42.690;2.586;2022-12-20T05:26:46;97565.34;;;10.74;66.90
30873;BME280;17579;42.690;2.586;2022-12-20T05:29:11;97582.31;;;10.71;66.92
30873;BME280;17579;42.690;2.586;2022-12-20T05:31:37;97566.44;;;10.71;67.09
30873;BME280;17579;42.690;2.586;2022-12-20T05:34:02;97562.16;;;10.70;66.87
30873;BME280;17579;42.690;2.586;2022-12-20T05:36:28;97554.34;;;10.69;67.25
30873;BME280;17579;42.690;2.586;2022-12-20T05:38:54;97541.81;;;10.71;67.28
30873;BME280;17579;42.690;2.586;2022-12-20T05:41:19;97540.00;;;10.71;66.88
30873;BME280;17579;42.690;2.586;2022-12-20T05:43:45;97539.03;;;10.72;67.05
30873;BME280;17579;42.690;2.586;2022-12-20T05:46:10;97538.34;;;10.70;66.90
30873;BME280;17579;42.690;2.586;2022-12-20T05:48:36;97539.44;;;10.68;66.92
30873;BME280;17579;42.690;2.586;2022-12-20T05:51:02;97554.34;;;10.69;66.90
30873;BME280;17579;42.690;2.586;2022-12-20T05:53:28;97542.78;;;10.70;66.92
30873;BME280;17579;42.690;2.586;2022-12-20T05:55:53;97537.09;;;10.65;66.93
30873;BME280;17579;42.690;2.586;2022-12-20T05:58:19;97542.38;;;10.65;67.01
30873;BME280;17579;42.690;2.586;2022-12-20T06:00:45;97546.94;;;10.63;66.96
30873;BME280;17579;42.690;2.586;2022-12-20T06:03:12;97535.81;;;10.59;66.91
30873;BME280;17579;42.690;2.586;2022-12-20T06:05:40;97537.22;;;10.53;67.05
30873;BME280;17579;42.690;2.586;2022-12-20T06:08:06;97543.75;;;10.49;67.18
30873;BME280;17579;42.690;2.586;2022-12-20T06:10:32;97535.81;;;10.49;67.39
30873;BME280;17579;42.690;2.586;2022-12-20T06:13:00;97541.09;;;10.49;67.32
30873;BME280;17579;42.690;2.586;2022-12-20T06:15:26;97527.72;;;10.51;67.29
30873;BME280;17579;42.690;2.586;2022-12-20T06:17:52;97517.97;;;10.51;67.60
30873;BME280;17579;42.690;2.586;2022-12-20T06:20:17;97509.91;;;10.53;67.50
30873;BME280;17579;42.690;2.586;2022-12-20T06:22:43;97513.25;;;10.55;67.25
30873;BME280;17579;42.690;2.586;2022-12-20T06:25:09;97509.66;;;10.56;67.35
30873;BME280;17579;42.690;2.586;2022-12-20T06:27:37;97510.47;;;10.56;67.40
30873;BME280;17579;42.690;2.586;2022-12-20T06:30:03;97515.91;;;10.55;67.28
30873;BME280;17579;42.690;2.586;2022-12-20T06:32:29;97512.16;;;10.57;67.66
30873;BME280;17579;42.690;2.586;2022-12-20T06:34:55;97519.94;;;10.59;67.35
30873;BME280;17579;42.690;2.586;2022-12-20T06:37:20;97523.28;;;10.61;67.32
30873;BME280;17579;42.690;2.586;2022-12-20T06:39:46;97520.63;;;10.61;67.15
30873;BME280;17579;42.690;2.586;2022-12-20T06:42:11;97521.59;;;10.60;67.04
30873;BME280;17579;42.690;2.586;2022-12-20T06:44:37;97510.19;;;10.60;67.04
30873;BME280;17579;42.690;2.586;2022-12-20T06:47:03;97522.75;;;10.57;67.09
30873;BME280;17579;42.690;2.586;2022-12-20T06:49:28;97518.28;;;10.58;67.08
30873;BME280;17579;42.690;2.586;2022-12-20T06:51:54;97532.47;;;10.57;67.28
30873;BME280;17579;42.690;2.586;2022-12-20T06:54:20;97537.91;;;10.55;67.08
30873;BME280;17579;42.690;2.586;2022-12-20T06:56:46;97531.63;;;10.56;66.98
30873;BME280;17579;42.690;2.586;2022-12-20T06:59:11;97536.09;;;10.56;66.91
30873;BME280;17579;42.690;2.586;2022-12-20T07:01:37;97528.31;;;10.54;66.73
30873;BME280;17579;42.690;2.586;2022-12-20T07:04:03;97526.78;;;10.52;66.99
30873;BME280;17579;42.690;2.586;2022-12-20T07:06:28;97535.81;;;10.49;67.16
30873;BME280;17579;42.690;2.586;2022-12-20T07:08:54;97535.94;;;10.48;67.19
30873;BME280;17579;42.690;2.586;2022-12-20T07:11:20;97541.09;;;10.49;67.12
30873;BME280;17579;42.690;2.586;2022-12-20T07:13:45;97541.53;;;10.54;67.48
30873;BME280;17579;42.690;2.586;2022-12-20T07:16:11;97537.75;;;10.57;67.10
30873;BME280;17579;42.690;2.586;2022-12-20T07:18:37;97536.66;;;10.60;67.13
30873;BME280;17579;42.690;2.586;2022-12-20T07:21:04;97530.13;;;10.64;67.30
30873;BME280;17579;42.690;2.586;2022-12-20T07:23:30;97535.84;;;10.69;67.09
30873;BME280;17579;42.690;2.586;2022-12-20T07:25:58;97534.69;;;10.71;66.89
30873;BME280;17579;42.690;2.586;2022-12-20T07:28:25;97535.28;;;10.75;66.78
30873;BME280;17579;42.690;2.586;2022-12-20T07:30:52;97535.13;;;10.77;66.55
30873;BME280;17579;42.690;2.586;2022-12-20T07:33:18;97535.00;;;10.78;66.73
30873;BME280;17579;42.690;2.586;2022-12-20T07:35:43;97539.59;;;10.76;66.76
30873;BME280;17579;42.690;2.586;2022-12-20T07:38:12;97536.09;;;10.75;66.66
30873;BME280;17579;42.690;2.586;2022-12-20T07:40:41;97527.47;;;10.73;67.12
30873;BME280;17579;42.690;2.586;2022-12-20T07:43:08;97534.16;;;10.78;67.09
30873;BME280;17579;42.690;2.586;2022-12-20T07:45:34;97528.88;;;10.78;66.99
30873;BME280;17579;42.690;2.586;2022-12-20T07:48:03;97525.22;;;10.79;67.00
30873;BME280;17579;42.690;2.586;2022-12-20T07:50:28;97521.63;;;10.80;67.08
30873;BME280;17579;42.690;2.586;2022-12-20T07:52:56;97539.16;;;10.81;66.83
30873;BME280;17579;42.690;2.586;2022-12-20T07:55:22;97534.69;;;10.81;66.99
30873;BME280;17579;42.690;2.586;2022-12-20T07:57:52;97535.66;;;10.80;66.68
30873;BME280;17579;42.690;2.586;2022-12-20T08:00:20;97540.13;;;10.80;67.08
30873;BME280;17579;42.690;2.586;2022-12-20T08:02:51;97541.09;;;10.79;67.03
30873;BME280;17579;42.690;2.586;2022-12-20T08:05:18;97539.31;;;10.79;66.93
30873;BME280;17579;42.690;2.586;2022-12-20T08:07:44;97533.03;;;10.80;67.05
30873;BME280;17579;42.690;2.586;2022-12-20T08:10:12;97522.59;;;10.79;66.79
30873;BME280;17579;42.690;2.586;2022-12-20T08:12:40;97537.50;;;10.80;67.25
30873;BME280;17579;42.690;2.586;2022-12-20T08:15:07;97535.53;;;10.82;67.11
30873;BME280;17579;42.690;2.586;2022-12-20T08:17:32;97530.22;;;10.82;67.02
30873;BME280;17579;42.690;2.586;2022-12-20T08:19:59;97525.81;;;10.82;67.05
30873;BME280;17579;42.690;2.586;2022-12-20T08:22:25;97536.25;;;10.84;66.89
30873;BME280;17579;42.690;2.586;2022-12-20T08:24:50;97536.09;;;10.85;67.13
30873;BME280;17579;42.690;2.586;2022-12-20T08:27:16;97546.69;;;10.85;67.03
30873;BME280;17579;42.690;2.586;2022-12-20T08:29:42;97543.06;;;10.86;67.20
30873;BME280;17579;42.690;2.586;2022-12-20T08:32:08;97540.44;;;10.86;67.08
30873;BME280;17579;42.690;2.586;2022-12-20T08:34:34;97538.88;;;10.84;67.07
30873;BME280;17579;42.690;2.586;2022-12-20T08:37:00;97545.84;;;10.85;67.03
30873;BME280;17579;42.690;2.586;2022-12-20T08:39:25;97550.28;;;10.84;67.18
30873;BME280;17579;42.690;2.586;2022-12-20T08:41:51;97547.66;;;10.84;67.07
30873;BME280;17579;42.690;2.586;2022-12-20T08:44:16;97564.91;;;10.88;67.12
30873;BME280;17579;42.690;2.586;2022-12-20T08:46:42;97556.69;;;10.91;67.09
30873;BME280;17579;42.690;2.586;2022-12-20T08:49:07;97559.34;;;10.91;67.17
30873;BME280;17579;42.690;2.586;2022-12-20T08:51:33;97559.22;;;10.93;67.18
30873;BME280;17579;42.690;2.586;2022-12-20T08:53:58;97554.63;;;10.95;67.33
30873;BME280;17579;42.690;2.586;2022-12-20T08:56:24;97554.47;;;10.97;66.88
30873;BME280;17579;42.690;2.586;2022-12-20T08:58:50;97556.16;;;10.98;67.07
30873;BME280;17579;42.690;2.586;2022-12-20T09:01:17;97555.88;;;11.01;67.22
30873;BME280;17579;42.690;2.586;2022-12-20T09:03:45;97554.63;;;11.05;66.96
30873;BME280;17579;42.690;2.586;2022-12-20T09:06:16;97550.16;;;11.05;66.93
30873;BME280;17579;42.690;2.586;2022-12-20T09:08:42;97557.53;;;11.12;67.25
30873;BME280;17579;42.690;2.586;2022-12-20T09:11:17;97559.19;;;11.13;67.25
30873;BME280;17579;42.690;2.586;2022-12-20T09:13:45;97547.63;;;11.23;67.22
30873;BME280;17579;42.690;2.586;2022-12-20T09:16:14;97551.94;;;11.24;67.15
30873;BME280;17579;42.690;2.586;2022-12-20T09:18:40;97548.03;;;11.29;66.78
30873;BME280;17579;42.690;2.586;2022-12-20T09:21:07;97553.88;;;11.32;66.79
30873;BME280;17579;42.690;2.586;2022-12-20T09:23:34;97537.72;;;11.35;66.87
30873;BME280;17579;42.690;2.586;2022-12-20T09:26:05;97543.00;;;11.35;66.72
30873;BME280;17579;42.690;2.586;2022-12-20T09:28:32;97532.81;;;11.40;66.98
30873;BME280;17579;42.690;2.586;2022-12-20T09:31:02;97532.81;;;11.40;67.03
30873;BME280;17579;42.690;2.586;2022-12-20T09:33:29;97538.53;;;11.46;66.87
30873;BME280;17579;42.690;2.586;2022-12-20T09:35:56;97533.91;;;11.48;66.97
30873;BME280;17579;42.690;2.586;2022-12-20T09:38:21;97537.25;;;11.50;66.65
30873;BME280;17579;42.690;2.586;2022-12-20T09:40:50;97535.56;;;11.49;66.68
30873;BME280;17579;42.690;2.586;2022-12-20T09:43:16;97544.09;;;11.52;66.88
30873;BME280;17579;42.690;2.586;2022-12-20T09:45:45;97541.44;;;11.52;66.70
30873;BME280;17579;42.690;2.586;2022-12-20T09:48:32;97537.25;;;11.50;66.99
30873;BME280;17579;42.690;2.586;2022-12-20T09:56:34;97539.47;;;11.54;66.55
30873;BME280;17579;42.690;2.586;2022-12-20T09:59:09;97536.97;;;11.53;66.64
30873;BME280;17579;42.690;2.586;2022-12-20T10:01:36;97543.94;;;11.54;66.81
30873;BME280;17579;42.690;2.586;2022-12-20T10:04:06;97537.94;;;11.52;66.79
30873;BME280;17579;42.690;2.586;2022-12-20T10:10:15;97533.22;;;11.46;66.56
30873;BME280;17579;42.690;2.586;2022-12-20T10:13:12;97543.53;;;11.49;66.41
30873;BME280;17579;42.690;2.586;2022-12-20T10:15:40;97540.72;;;11.50;66.77
30873;BME280;17579;42.690;2.586;2022-12-20T10:21:18;97539.63;;;11.53;66.59
30873;BME280;17579;42.690;2.586;2022-12-20T10:23:59;97534.47;;;11.51;66.91
30873;BME280;17579;42.690;2.586;2022-12-20T10:26:26;97532.34;;;11.55;66.39
30873;BME280;17579;42.690;2.586;2022-12-20T10:28:52;97523.56;;;11.54;66.85
30873;BME280;17579;42.690;2.586;2022-12-20T10:31:18;97522.75;;;11.54;66.55
30873;BME280;17579;42.690;2.586;2022-12-20T10:33:44;97527.03;;;11.55;66.55
30873;BME280;17579;42.690;2.586;2022-12-20T10:36:29;97510.78;;;11.50;66.63
30873;BME280;17579;42.690;2.586;2022-12-20T10:39:01;97519.81;;;11.57;66.41
30873;BME280;17579;42.690;2.586;2022-12-20T10:41:29;97512.53;;;11.59;66.68
30873;BME280;17579;42.690;2.586;2022-12-20T10:44:04;97512.00;;;11.55;66.84
30873;BME280;17579;42.690;2.586;2022-12-20T10:46:42;97512.53;;;11.59;66.73
30873;BME280;17579;42.690;2.586;2022-12-20T10:49:25;97509.88;;;11.59;66.83
30873;BME280;17579;42.690;2.586;2022-12-20T10:51:53;97511.13;;;11.65;66.64
30873;BME280;17579;42.690;2.586;2022-12-20T10:54:34;97507.78;;;11.63;66.86
30873;BME280;17579;42.690;2.586;2022-12-20T10:59:57;97495.25;;;11.55;66.64
30873;BME280;17579;42.690;2.586;2022-12-20T11:02:30;97492.06;;;11.51;66.63
30873;BME280;17579;42.690;2.586;2022-12-20T11:05:20;97488.59;;;11.51;66.73
30873;BME280;17579;42.690;2.586;2022-12-20T11:07:56;97496.13;;;11.46;66.95
30873;BME280;17579;42.690;2.586;2022-12-20T11:10:25;97497.53;;;11.50;66.74
30873;BME280;17579;42.690;2.586;2022-12-20T11:13:01;97496.97;;;11.46;67.03
30873;BME280;17579;42.690;2.586;2022-12-20T11:15:30;97496.41;;;11.52;66.79
30873;BME280;17579;42.690;2.586;2022-12-20T11:18:03;97505.47;;;11.50;67.10
30873;BME280;17579;42.690;2.586;2022-12-20T11:23:42;97497.91;;;11.55;67.02
30873;BME280;17579;42.690;2.586;2022-12-20T11:32:28;97483.41;;;11.59;67.03
30873;BME280;17579;42.690;2.586;2022-12-20T11:35:18;97474.47;;;11.60;67.03
30873;BME280;17579;42.690;2.586;2022-12-20T11:38:10;97478.50;;;11.64;66.91
30873;BME280;17579;42.690;2.586;2022-12-20T11:43:59;97463.28;;;11.66;67.05
30873;BME280;17579;42.690;2.586;2022-12-20T11:55:16;97450.44;;;11.71;67.15
30873;BME280;17579;42.690;2.586;2022-12-20T11:58:09;97442.50;;;11.71;67.00
30873;BME280;17579;42.690;2.586;2022-12-20T12:00:39;97443.72;;;11.77;66.63
30873;BME280;17579;42.690;2.586;2022-12-20T12:03:20;97439.69;;;11.73;67.26
30873;BME280;17579;42.690;2.586;2022-12-20T12:05:55;97438.41;;;11.77;66.83
30873;BME280;17579;42.690;2.586;2022-12-20T12:08:39;97432.97;;;11.78;67.32
30873;BME280;17579;42.690;2.586;2022-12-20T12:11:28;97436.28;;;11.81;67.23
30873;BME280;17579;42.690;2.586;2022-12-20T12:13:56;97432.75;;;11.90;66.81
30873;BME280;17579;42.690;2.586;2022-12-20T12:16:40;97432.06;;;11.88;66.97
30873;BME280;17579;42.690;2.586;2022-12-20T12:19:10;97429.09;;;11.91;66.80
30873;BME280;17579;42.690;2.586;2022-12-20T12:21:49;97420.78;;;11.86;67.18
30873;BME280;17579;42.690;2.586;2022-12-20T12:24:32;97417.31;;;11.85;67.09
30873;BME280;17579;42.690;2.586;2022-12-20T12:26:59;97418.50;;;11.91;66.81
30873;BME280;17579;42.690;2.586;2022-12-20T12:29:28;97410.56;;;11.91;67.05
30873;BME280;17579;42.690;2.586;2022-12-20T12:32:07;97410.72;;;11.89;67.26
30873;BME280;17579;42.690;2.586;2022-12-20T12:41:03;97380.84;;;11.97;67.13
30873;BME280;17579;42.690;2.586;2022-12-20T12:46:29;97373.97;;;12.04;67.33
30873;BME280;17579;42.690;2.586;2022-12-20T12:49:10;97376.16;;;12.09;67.25
30873;BME280;17579;42.690;2.586;2022-12-20T12:51:42;97367.22;;;12.10;67.08
30873;BME280;17579;42.690;2.586;2022-12-20T12:54:22;97368.03;;;12.10;67.02
30873;BME280;17579;42.690;2.586;2022-12-20T12:56:50;97362.13;;;12.17;67.36
30873;BME280;17579;42.690;2.586;2022-12-20T12:59:47;97362.75;;;12.10;67.35
30873;BME280;17579;42.690;2.586;2022-12-20T13:02:32;97353.97;;;12.10;67.10
30873;BME280;17579;42.690;2.586;2022-12-20T13:05:29;97355.91;;;12.08;67.35
30873;BME280;17579;42.690;2.586;2022-12-20T13:07:54;97357.66;;;12.17;67.48
30873;BME280;17579;42.690;2.586;2022-12-20T13:10:56;97354.44;;;12.05;67.50
30873;BME280;17579;42.690;2.586;2022-12-20T13:13:22;97344.72;;;12.14;67.37
30873;BME280;17579;42.690;2.586;2022-12-20T13:15:49;97342.34;;;12.11;67.45
30873;BME280;17579;42.690;2.586;2022-12-20T13:18:21;97343.50;;;12.08;67.37
30873;BME280;17579;42.690;2.586;2022-12-20T13:21:17;97339.19;;;12.07;67.37
30873;BME280;17579;42.690;2.586;2022-12-20T13:23:43;97334.63;;;12.18;67.10
30873;BME280;17579;42.690;2.586;2022-12-20T13:26:41;97339.09;;;12.17;67.67
30873;BME280;17579;42.690;2.586;2022-12-20T13:29:22;97326.91;;;12.24;67.30
30873;BME280;17579;42.690;2.586;2022-12-20T13:31:48;97317.69;;;12.37;67.38
30873;BME280;17579;42.690;2.586;2022-12-20T13:40:20;97318.63;;;12.80;67.25
30873;BME280;17579;42.690;2.586;2022-12-20T13:42:50;97315.03;;;12.89;66.17
30873;BME280;17579;42.690;2.586;2022-12-20T13:45:18;97321.72;;;12.93;66.02
30873;BME280;17579;42.690;2.586;2022-12-20T13:47:53;97316.56;;;12.92;66.42
30873;BME280;17579;42.690;2.586;2022-12-20T13:50:31;97331.19;;;12.96;66.36
30873;BME280;17579;42.690;2.586;2022-12-20T13:53:00;97318.78;;;13.05;65.51
30873;BME280;17579;42.690;2.586;2022-12-20T13:55:37;97311.97;;;13.02;65.84
30873;BME280;17579;42.690;2.586;2022-12-20T13:58:13;97305.94;;;13.00;65.76
30873;BME280;17579;42.690;2.586;2022-12-20T14:00:40;97311.97;;;13.02;65.59
30873;BME280;17579;42.690;2.586;2022-12-20T14:03:22;97305.47;;;12.96;65.75
30873;BME280;17579;42.690;2.586;2022-12-20T14:05:55;97299.66;;;13.01;65.64
30873;BME280;17579;42.690;2.586;2022-12-20T14:08:24;97303.31;;;13.00;65.41
30873;BME280;17579;42.690;2.586;2022-12-20T14:10:52;97299.31;;;12.96;65.57
30873;BME280;17579;42.690;2.586;2022-12-20T14:13:25;97301.06;;;12.87;65.22
30873;BME280;17579;42.690;2.586;2022-12-20T14:15:52;97292.13;;;12.88;65.15
30873;BME280;17579;42.690;2.586;2022-12-20T14:18:23;97285.34;;;12.94;65.46
30873;BME280;17579;42.690;2.586;2022-12-20T14:20:54;97287.56;;;13.07;65.53
30873;BME280;17579;42.690;2.586;2022-12-20T14:23:31;97271.53;;;13.25;65.34